sensor_id;sensor_type;location;lat;lon;timestamp;P1;durP1;ratioP1;P2;durP2;ratioP2
60243;SDS011;46106;51.468;5.814;2024-03-07T00:02:02;91.82;;;37.03;;
60243;SDS011;46106;51.468;5.814;2024-03-07T00:04:28;90.35;;;37.85;;
60243;SDS011;46106;51.468;5.814;2024-03-07T00:06:53;97.45;;;37.80;;
60243;SDS011;46106;51.468;5.814;2024-03-07T00:09:19;97.70;;;38.33;;
60243;SDS011;46106;51.468;5.814;2024-03-07T00:11:44;106.10;;;38.67;;
60243;SDS011;46106;51.468;5.814;2024-03-07T00:14:09;87.30;;;37.95;;
60243;SDS011;46106;51.468;5.814;2024-03-07T00:16:35;96.03;;;38.38;;
60243;SDS011;46106;51.468;5.814;2024-03-07T00:19:00;107.93;;;41.88;;
60243;SDS011;46106;51.468;5.814;2024-03-07T00:21:26;98.83;;;38.90;;
60243;SDS011;46106;51.468;5.814;2024-03-07T00:23:51;103.25;;;40.22;;
60243;SDS011;46106;51.468;5.814;2024-03-07T00:26:16;108.43;;;41.53;;
60243;SDS011;46106;51.468;5.814;2024-03-07T00:28:42;107.63;;;41.50;;
60243;SDS011;46106;51.468;5.814;2024-03-07T00:31:07;107.90;;;40.35;;
60243;SDS011;46106;51.468;5.814;2024-03-07T00:33:34;103.20;;;40.50;;
60243;SDS011;46106;51.468;5.814;2024-03-07T00:35:59;100.78;;;41.53;;
60243;SDS011;46106;51.468;5.814;2024-03-07T00:38:25;100.75;;;40.30;;
60243;SDS011;46106;51.468;5.814;2024-03-07T00:40:50;109.07;;;41.22;;
60243;SDS011;46106;51.468;5.814;2024-03-07T00:43:16;109.90;;;40.85;;
60243;SDS011;46106;51.468;5.814;2024-03-07T00:45:41;108.33;;;41.73;;
60243;SDS011;46106;51.468;5.814;2024-03-07T00:48:06;109.25;;;40.67;;
60243;SDS011;46106;51.468;5.814;2024-03-07T00:50:32;109.63;;;41.58;;
60243;SDS011;46106;51.468;5.814;2024-03-07T00:52:57;116.18;;;42.47;;
60243;SDS011;46106;51.468;5.814;2024-03-07T00:55:22;113.88;;;42.35;;
60243;SDS011;46106;51.468;5.814;2024-03-07T00:57:48;106.40;;;40.05;;
60243;SDS011;46106;51.468;5.814;2024-03-07T01:00:13;105.97;;;41.17;;
60243;SDS011;46106;51.468;5.814;2024-03-07T01:02:42;115.28;;;44.00;;
60243;SDS011;46106;51.468;5.814;2024-03-07T01:05:09;117.93;;;42.45;;
60243;SDS011;46106;51.468;5.814;2024-03-07T01:07:35;121.47;;;42.63;;
60243;SDS011;46106;51.468;5.814;2024-03-07T01:10:02;113.50;;;43.65;;
60243;SDS011;46106;51.468;5.814;2024-03-07T01:12:27;111.43;;;43.15;;
60243;SDS011;46106;51.468;5.814;2024-03-07T01:14:55;108.47;;;42.60;;
60243;SDS011;46106;51.468;5.814;2024-03-07T01:17:22;117.07;;;44.25;;
60243;SDS011;46106;51.468;5.814;2024-03-07T01:19:47;109.15;;;42.53;;
60243;SDS011;46106;51.468;5.814;2024-03-07T01:22:12;118.28;;;44.08;;
60243;SDS011;46106;51.468;5.814;2024-03-07T01:24:38;115.22;;;44.78;;
60243;SDS011;46106;51.468;5.814;2024-03-07T01:27:04;119.43;;;44.60;;
60243;SDS011;46106;51.468;5.814;2024-03-07T01:29:30;118.55;;;43.08;;
60243;SDS011;46106;51.468;5.814;2024-03-07T01:31:55;110.90;;;41.63;;
60243;SDS011;46106;51.468;5.814;2024-03-07T01:34:20;120.97;;;43.72;;
60243;SDS011;46106;51.468;5.814;2024-03-07T01:36:46;118.97;;;44.35;;
60243;SDS011;46106;51.468;5.814;2024-03-07T01:39:11;112.95;;;42.03;;
60243;SDS011;46106;51.468;5.814;2024-03-07T01:41:36;125.25;;;43.30;;
60243;SDS011;46106;51.468;5.814;2024-03-07T01:44:01;117.07;;;43.97;;
60243;SDS011;46106;51.468;5.814;2024-03-07T01:46:27;123.25;;;43.80;;
60243;SDS011;46106;51.468;5.814;2024-03-07T01:48:53;119.07;;;42.22;;
60243;SDS011;46106;51.468;5.814;2024-03-07T01:51:18;113.15;;;42.05;;
60243;SDS011;46106;51.468;5.814;2024-03-07T01:53:44;120.55;;;43.28;;
60243;SDS011;46106;51.468;5.814;2024-03-07T01:56:10;116.15;;;42.65;;
60243;SDS011;46106;51.468;5.814;2024-03-07T01:58:36;121.28;;;42.83;;
60243;SDS011;46106;51.468;5.814;2024-03-07T02:01:01;124.28;;;42.17;;
60243;SDS011;46106;51.468;5.814;2024-03-07T02:03:27;124.63;;;43.95;;
60243;SDS011;46106;51.468;5.814;2024-03-07T02:05:52;117.35;;;42.40;;
60243;SDS011;46106;51.468;5.814;2024-03-07T02:08:18;124.95;;;43.58;;
60243;SDS011;46106;51.468;5.814;2024-03-07T02:10:44;132.52;;;43.85;;
60243;SDS011;46106;51.468;5.814;2024-03-07T02:13:11;124.95;;;41.92;;
60243;SDS011;46106;51.468;5.814;2024-03-07T02:15:36;130.77;;;42.97;;
60243;SDS011;46106;51.468;5.814;2024-03-07T02:18:01;128.43;;;44.93;;
60243;SDS011;46106;51.468;5.814;2024-03-07T02:20:27;124.57;;;45.60;;
60243;SDS011;46106;51.468;5.814;2024-03-07T02:22:53;125.05;;;44.95;;
60243;SDS011;46106;51.468;5.814;2024-03-07T02:25:19;129.00;;;46.65;;
60243;SDS011;46106;51.468;5.814;2024-03-07T02:27:45;135.60;;;47.40;;
60243;SDS011;46106;51.468;5.814;2024-03-07T02:30:10;132.25;;;46.42;;
60243;SDS011;46106;51.468;5.814;2024-03-07T02:32:37;134.43;;;47.13;;
60243;SDS011;46106;51.468;5.814;2024-03-07T02:35:03;131.27;;;45.05;;
60243;SDS011;46106;51.468;5.814;2024-03-07T02:37:29;140.85;;;46.63;;
60243;SDS011;46106;51.468;5.814;2024-03-07T02:39:54;131.10;;;45.15;;
60243;SDS011;46106;51.468;5.814;2024-03-07T02:42:19;138.07;;;46.35;;
60243;SDS011;46106;51.468;5.814;2024-03-07T02:44:45;132.02;;;47.50;;
60243;SDS011;46106;51.468;5.814;2024-03-07T02:47:10;141.60;;;48.92;;
60243;SDS011;46106;51.468;5.814;2024-03-07T02:49:35;137.45;;;46.45;;
60243;SDS011;46106;51.468;5.814;2024-03-07T02:52:01;123.55;;;44.50;;
60243;SDS011;46106;51.468;5.814;2024-03-07T02:54:26;130.45;;;45.33;;
60243;SDS011;46106;51.468;5.814;2024-03-07T02:56:52;131.10;;;46.67;;
60243;SDS011;46106;51.468;5.814;2024-03-07T02:59:17;143.75;;;47.10;;
60243;SDS011;46106;51.468;5.814;2024-03-07T03:01:43;148.68;;;47.78;;
60243;SDS011;46106;51.468;5.814;2024-03-07T03:27:23;124.20;;;45.30;;
60243;SDS011;46106;51.468;5.814;2024-03-07T03:29:49;136.10;;;46.50;;
60243;SDS011;46106;51.468;5.814;2024-03-07T03:32:15;132.15;;;47.72;;
60243;SDS011;46106;51.468;5.814;2024-03-07T03:34:41;117.45;;;47.50;;
60243;SDS011;46106;51.468;5.814;2024-03-07T03:37:07;133.93;;;48.60;;
60243;SDS011;46106;51.468;5.814;2024-03-07T03:39:34;130.32;;;46.05;;
60243;SDS011;46106;51.468;5.814;2024-03-07T03:41:59;139.30;;;46.72;;
60243;SDS011;46106;51.468;5.814;2024-03-07T03:44:24;124.57;;;46.22;;
60243;SDS011;46106;51.468;5.814;2024-03-07T03:46:49;142.65;;;47.83;;
60243;SDS011;46106;51.468;5.814;2024-03-07T03:49:15;121.13;;;46.95;;
60243;SDS011;46106;51.468;5.814;2024-03-07T03:51:41;129.05;;;47.40;;
60243;SDS011;46106;51.468;5.814;2024-03-07T03:54:06;138.07;;;49.30;;
60243;SDS011;46106;51.468;5.814;2024-03-07T03:56:31;137.98;;;47.25;;
60243;SDS011;46106;51.468;5.814;2024-03-07T03:58:57;131.55;;;46.35;;
60243;SDS011;46106;51.468;5.814;2024-03-07T04:01:22;125.72;;;47.40;;
60243;SDS011;46106;51.468;5.814;2024-03-07T04:03:48;130.77;;;46.72;;
60243;SDS011;46106;51.468;5.814;2024-03-07T04:06:14;132.97;;;47.00;;
60243;SDS011;46106;51.468;5.814;2024-03-07T04:08:40;135.15;;;49.10;;
60243;SDS011;46106;51.468;5.814;2024-03-07T04:11:05;131.80;;;47.35;;
60243;SDS011;46106;51.468;5.814;2024-03-07T04:13:34;129.98;;;46.10;;
60243;SDS011;46106;51.468;5.814;2024-03-07T04:16:01;130.95;;;46.92;;
60243;SDS011;46106;51.468;5.814;2024-03-07T04:18:26;129.75;;;46.80;;
60243;SDS011;46106;51.468;5.814;2024-03-07T04:20:51;136.05;;;46.90;;
60243;SDS011;46106;51.468;5.814;2024-03-07T04:23:17;132.13;;;50.17;;
60243;SDS011;46106;51.468;5.814;2024-03-07T04:25:43;125.93;;;48.33;;
60243;SDS011;46106;51.468;5.814;2024-03-07T04:28:08;126.25;;;46.03;;
60243;SDS011;46106;51.468;5.814;2024-03-07T04:30:34;121.93;;;46.43;;
60243;SDS011;46106;51.468;5.814;2024-03-07T04:32:59;127.05;;;44.45;;
60243;SDS011;46106;51.468;5.814;2024-03-07T04:35:25;133.85;;;45.83;;
60243;SDS011;46106;51.468;5.814;2024-03-07T04:37:53;115.07;;;46.17;;
60243;SDS011;46106;51.468;5.814;2024-03-07T04:40:24;122.40;;;45.80;;
60243;SDS011;46106;51.468;5.814;2024-03-07T04:42:50;119.43;;;44.78;;
60243;SDS011;46106;51.468;5.814;2024-03-07T04:45:16;107.82;;;44.80;;
60243;SDS011;46106;51.468;5.814;2024-03-07T04:47:44;119.90;;;47.05;;
60243;SDS011;46106;51.468;5.814;2024-03-07T04:50:52;118.43;;;46.10;;
60243;SDS011;46106;51.468;5.814;2024-03-07T04:53:26;123.60;;;45.33;;
60243;SDS011;46106;51.468;5.814;2024-03-07T04:55:52;116.90;;;43.58;;
60243;SDS011;46106;51.468;5.814;2024-03-07T04:58:18;120.90;;;45.22;;
60243;SDS011;46106;51.468;5.814;2024-03-07T05:00:43;113.07;;;44.03;;
60243;SDS011;46106;51.468;5.814;2024-03-07T05:03:08;129.23;;;47.05;;
60243;SDS011;46106;51.468;5.814;2024-03-07T05:05:34;119.35;;;44.78;;
60243;SDS011;46106;51.468;5.814;2024-03-07T05:08:00;118.00;;;44.08;;
60243;SDS011;46106;51.468;5.814;2024-03-07T05:10:25;113.40;;;45.25;;
60243;SDS011;46106;51.468;5.814;2024-03-07T05:12:53;116.45;;;44.03;;
60243;SDS011;46106;51.468;5.814;2024-03-07T05:15:18;117.35;;;45.95;;
60243;SDS011;46106;51.468;5.814;2024-03-07T05:17:45;129.55;;;45.88;;
60243;SDS011;46106;51.468;5.814;2024-03-07T05:20:11;109.50;;;44.95;;
60243;SDS011;46106;51.468;5.814;2024-03-07T05:22:37;115.38;;;45.63;;
60243;SDS011;46106;51.468;5.814;2024-03-07T05:25:05;111.40;;;45.63;;
60243;SDS011;46106;51.468;5.814;2024-03-07T05:27:31;116.10;;;45.45;;
60243;SDS011;46106;51.468;5.814;2024-03-07T05:29:56;109.55;;;43.47;;
60243;SDS011;46106;51.468;5.814;2024-03-07T05:34:58;113.22;;;44.17;;
60243;SDS011;46106;51.468;5.814;2024-03-07T05:37:24;112.63;;;44.03;;
60243;SDS011;46106;51.468;5.814;2024-03-07T05:39:49;128.35;;;44.72;;
60243;SDS011;46106;51.468;5.814;2024-03-07T05:42:15;107.57;;;43.75;;
60243;SDS011;46106;51.468;5.814;2024-03-07T05:44:44;122.82;;;45.35;;
60243;SDS011;46106;51.468;5.814;2024-03-07T05:47:09;127.43;;;48.10;;
60243;SDS011;46106;51.468;5.814;2024-03-07T05:49:35;115.68;;;45.30;;
60243;SDS011;46106;51.468;5.814;2024-03-07T05:52:02;111.57;;;44.65;;
60243;SDS011;46106;51.468;5.814;2024-03-07T05:54:27;119.10;;;46.08;;
60243;SDS011;46106;51.468;5.814;2024-03-07T05:56:54;119.47;;;46.78;;
60243;SDS011;46106;51.468;5.814;2024-03-07T05:59:20;118.70;;;45.53;;
60243;SDS011;46106;51.468;5.814;2024-03-07T06:01:46;116.95;;;44.38;;
60243;SDS011;46106;51.468;5.814;2024-03-07T06:04:12;125.70;;;48.00;;
60243;SDS011;46106;51.468;5.814;2024-03-07T06:06:37;118.43;;;44.63;;
60243;SDS011;46106;51.468;5.814;2024-03-07T06:09:04;124.28;;;45.03;;
60243;SDS011;46106;51.468;5.814;2024-03-07T06:11:35;111.40;;;43.70;;
60243;SDS011;46106;51.468;5.814;2024-03-07T06:14:04;117.95;;;45.38;;
60243;SDS011;46106;51.468;5.814;2024-03-07T06:24:15;135.35;;;47.03;;
60243;SDS011;46106;51.468;5.814;2024-03-07T06:26:42;117.90;;;46.05;;
60243;SDS011;46106;51.468;5.814;2024-03-07T06:37:13;117.70;;;45.55;;
60243;SDS011;46106;51.468;5.814;2024-03-07T06:39:39;117.40;;;46.08;;
60243;SDS011;46106;51.468;5.814;2024-03-07T06:42:04;117.63;;;46.88;;
60243;SDS011;46106;51.468;5.814;2024-03-07T06:44:30;117.18;;;47.60;;
60243;SDS011;46106;51.468;5.814;2024-03-07T06:46:55;118.72;;;46.08;;
60243;SDS011;46106;51.468;5.814;2024-03-07T06:49:23;112.07;;;44.65;;
60243;SDS011;46106;51.468;5.814;2024-03-07T06:51:49;123.22;;;47.10;;
60243;SDS011;46106;51.468;5.814;2024-03-07T06:54:14;108.00;;;43.67;;
60243;SDS011;46106;51.468;5.814;2024-03-07T06:56:40;112.38;;;45.10;;
60243;SDS011;46106;51.468;5.814;2024-03-07T06:59:09;104.88;;;43.97;;
60243;SDS011;46106;51.468;5.814;2024-03-07T07:01:36;109.05;;;45.08;;
60243;SDS011;46106;51.468;5.814;2024-03-07T07:04:02;114.40;;;44.90;;
60243;SDS011;46106;51.468;5.814;2024-03-07T07:06:28;103.40;;;43.22;;
60243;SDS011;46106;51.468;5.814;2024-03-07T07:08:53;100.15;;;44.00;;
60243;SDS011;46106;51.468;5.814;2024-03-07T07:11:19;101.90;;;41.58;;
60243;SDS011;46106;51.468;5.814;2024-03-07T07:13:44;96.78;;;42.45;;
60243;SDS011;46106;51.468;5.814;2024-03-07T07:16:11;102.00;;;43.60;;
60243;SDS011;46106;51.468;5.814;2024-03-07T07:18:37;94.32;;;41.63;;
60243;SDS011;46106;51.468;5.814;2024-03-07T07:21:03;96.97;;;40.53;;
60243;SDS011;46106;51.468;5.814;2024-03-07T07:23:29;90.35;;;39.65;;
60243;SDS011;46106;51.468;5.814;2024-03-07T07:25:54;92.07;;;40.10;;
60243;SDS011;46106;51.468;5.814;2024-03-07T07:28:20;84.57;;;39.67;;
60243;SDS011;46106;51.468;5.814;2024-03-07T07:30:45;83.55;;;37.45;;
60243;SDS011;46106;51.468;5.814;2024-03-07T07:33:11;79.93;;;35.17;;
60243;SDS011;46106;51.468;5.814;2024-03-07T07:35:36;74.07;;;32.80;;
60243;SDS011;46106;51.468;5.814;2024-03-07T07:38:02;74.53;;;35.08;;
60243;SDS011;46106;51.468;5.814;2024-03-07T07:40:27;74.70;;;33.70;;
60243;SDS011;46106;51.468;5.814;2024-03-07T07:42:53;73.78;;;34.00;;
60243;SDS011;46106;51.468;5.814;2024-03-07T07:45:19;73.78;;;33.53;;
60243;SDS011;46106;51.468;5.814;2024-03-07T07:47:46;77.32;;;35.85;;
60243;SDS011;46106;51.468;5.814;2024-03-07T07:50:12;69.93;;;34.35;;
60243;SDS011;46106;51.468;5.814;2024-03-07T07:52:46;66.22;;;31.33;;
60243;SDS011;46106;51.468;5.814;2024-03-07T07:55:13;66.10;;;31.63;;
60243;SDS011;46106;51.468;5.814;2024-03-07T07:57:45;72.10;;;33.03;;
60243;SDS011;46106;51.468;5.814;2024-03-07T08:00:12;58.72;;;30.45;;
60243;SDS011;46106;51.468;5.814;2024-03-07T08:02:37;66.68;;;31.80;;
60243;SDS011;46106;51.468;5.814;2024-03-07T08:05:03;61.97;;;28.75;;
60243;SDS011;46106;51.468;5.814;2024-03-07T08:07:30;63.55;;;30.05;;
60243;SDS011;46106;51.468;5.814;2024-03-07T08:09:56;59.05;;;30.67;;
60243;SDS011;46106;51.468;5.814;2024-03-07T08:12:21;60.60;;;31.85;;
60243;SDS011;46106;51.468;5.814;2024-03-07T08:14:46;55.30;;;29.05;;
60243;SDS011;46106;51.468;5.814;2024-03-07T08:17:12;59.55;;;30.10;;
60243;SDS011;46106;51.468;5.814;2024-03-07T08:19:37;54.67;;;28.77;;
60243;SDS011;46106;51.468;5.814;2024-03-07T08:22:02;54.50;;;27.60;;
60243;SDS011;46106;51.468;5.814;2024-03-07T08:24:28;59.58;;;29.70;;
60243;SDS011;46106;51.468;5.814;2024-03-07T08:26:53;51.22;;;26.65;;
60243;SDS011;46106;51.468;5.814;2024-03-07T08:29:18;51.45;;;27.65;;
60243;SDS011;46106;51.468;5.814;2024-03-07T08:31:44;49.85;;;25.67;;
60243;SDS011;46106;51.468;5.814;2024-03-07T08:34:09;48.22;;;26.85;;
60243;SDS011;46106;51.468;5.814;2024-03-07T08:36:34;51.25;;;28.02;;
60243;SDS011;46106;51.468;5.814;2024-03-07T08:39:01;52.70;;;26.77;;
60243;SDS011;46106;51.468;5.814;2024-03-07T08:41:28;45.15;;;25.60;;
60243;SDS011;46106;51.468;5.814;2024-03-07T08:43:56;52.80;;;25.67;;
60243;SDS011;46106;51.468;5.814;2024-03-07T08:46:21;46.88;;;25.73;;
60243;SDS011;46106;51.468;5.814;2024-03-07T08:48:47;43.05;;;24.75;;
60243;SDS011;46106;51.468;5.814;2024-03-07T08:51:13;48.60;;;25.45;;
60243;SDS011;46106;51.468;5.814;2024-03-07T08:53:38;51.28;;;24.30;;
60243;SDS011;46106;51.468;5.814;2024-03-07T08:56:04;43.80;;;22.92;;
60243;SDS011;46106;51.468;5.814;2024-03-07T08:58:29;43.88;;;23.15;;
60243;SDS011;46106;51.468;5.814;2024-03-07T09:00:54;43.22;;;23.75;;
60243;SDS011;46106;51.468;5.814;2024-03-07T09:03:19;40.55;;;21.20;;
60243;SDS011;46106;51.468;5.814;2024-03-07T09:05:46;41.35;;;23.38;;
60243;SDS011;46106;51.468;5.814;2024-03-07T09:08:12;51.08;;;25.15;;
60243;SDS011;46106;51.468;5.814;2024-03-07T09:10:37;41.28;;;22.25;;
60243;SDS011;46106;51.468;5.814;2024-03-07T09:13:06;47.47;;;22.90;;
60243;SDS011;46106;51.468;5.814;2024-03-07T09:15:31;41.33;;;23.73;;
60243;SDS011;46106;51.468;5.814;2024-03-07T09:17:58;42.80;;;23.35;;
60243;SDS011;46106;51.468;5.814;2024-03-07T09:20:23;37.72;;;22.15;;
60243;SDS011;46106;51.468;5.814;2024-03-07T09:22:49;41.78;;;22.42;;
60243;SDS011;46106;51.468;5.814;2024-03-07T09:25:15;38.80;;;21.60;;
60243;SDS011;46106;51.468;5.814;2024-03-07T09:27:41;39.40;;;22.63;;
60243;SDS011;46106;51.468;5.814;2024-03-07T09:30:07;41.65;;;23.50;;
60243;SDS011;46106;51.468;5.814;2024-03-07T09:32:37;38.30;;;22.52;;
60243;SDS011;46106;51.468;5.814;2024-03-07T09:35:03;42.92;;;22.83;;
60243;SDS011;46106;51.468;5.814;2024-03-07T09:37:28;46.97;;;21.70;;
60243;SDS011;46106;51.468;5.814;2024-03-07T09:39:55;35.38;;;21.48;;
60243;SDS011;46106;51.468;5.814;2024-03-07T09:42:21;38.15;;;22.45;;
60243;SDS011;46106;51.468;5.814;2024-03-07T09:44:46;42.38;;;21.63;;
60243;SDS011;46106;51.468;5.814;2024-03-07T09:47:13;40.58;;;21.92;;
60243;SDS011;46106;51.468;5.814;2024-03-07T09:49:38;38.83;;;22.00;;
60243;SDS011;46106;51.468;5.814;2024-03-07T09:52:04;33.65;;;20.92;;
60243;SDS011;46106;51.468;5.814;2024-03-07T09:54:33;40.78;;;21.67;;
60243;SDS011;46106;51.468;5.814;2024-03-07T09:56:59;39.08;;;20.88;;
60243;SDS011;46106;51.468;5.814;2024-03-07T09:59:28;43.42;;;22.42;;
60243;SDS011;46106;51.468;5.814;2024-03-07T10:01:54;36.08;;;19.98;;
60243;SDS011;46106;51.468;5.814;2024-03-07T10:05:03;40.95;;;21.52;;
60243;SDS011;46106;51.468;5.814;2024-03-07T10:07:14;42.67;;;21.92;;
60243;SDS011;46106;51.468;5.814;2024-03-07T10:09:39;38.92;;;20.98;;
60243;SDS011;46106;51.468;5.814;2024-03-07T10:12:08;40.03;;;21.58;;
60243;SDS011;46106;51.468;5.814;2024-03-07T10:14:50;33.77;;;20.53;;
60243;SDS011;46106;51.468;5.814;2024-03-07T10:17:16;43.15;;;21.23;;
60243;SDS011;46106;51.468;5.814;2024-03-07T10:19:41;42.78;;;21.60;;
60243;SDS011;46106;51.468;5.814;2024-03-07T10:22:07;39.58;;;21.30;;
60243;SDS011;46106;51.468;5.814;2024-03-07T10:24:32;40.55;;;20.50;;
60243;SDS011;46106;51.468;5.814;2024-03-07T10:26:58;39.40;;;21.33;;
60243;SDS011;46106;51.468;5.814;2024-03-07T10:29:23;44.78;;;21.25;;
60243;SDS011;46106;51.468;5.814;2024-03-07T10:31:49;43.70;;;22.48;;
60243;SDS011;46106;51.468;5.814;2024-03-07T10:34:14;38.45;;;22.13;;
60243;SDS011;46106;51.468;5.814;2024-03-07T10:36:42;33.97;;;20.40;;
60243;SDS011;46106;51.468;5.814;2024-03-07T10:39:08;37.80;;;20.55;;
60243;SDS011;46106;51.468;5.814;2024-03-07T10:41:46;42.67;;;22.85;;
60243;SDS011;46106;51.468;5.814;2024-03-07T10:44:15;30.40;;;17.67;;
60243;SDS011;46106;51.468;5.814;2024-03-07T10:46:43;35.42;;;20.60;;
60243;SDS011;46106;51.468;5.814;2024-03-07T10:49:12;35.55;;;19.08;;
60243;SDS011;46106;51.468;5.814;2024-03-07T10:51:42;31.65;;;17.27;;
60243;SDS011;46106;51.468;5.814;2024-03-07T10:54:25;33.72;;;19.27;;
60243;SDS011;46106;51.468;5.814;2024-03-07T10:59:30;29.25;;;15.55;;
60243;SDS011;46106;51.468;5.814;2024-03-07T11:04:41;30.20;;;16.67;;
60243;SDS011;46106;51.468;5.814;2024-03-07T11:07:08;26.42;;;15.60;;
60243;SDS011;46106;51.468;5.814;2024-03-07T11:09:35;31.15;;;16.58;;
60243;SDS011;46106;51.468;5.814;2024-03-07T11:12:01;27.80;;;16.55;;
60243;SDS011;46106;51.468;5.814;2024-03-07T11:14:29;29.02;;;15.40;;
60243;SDS011;46106;51.468;5.814;2024-03-07T11:16:56;29.38;;;16.52;;
60243;SDS011;46106;51.468;5.814;2024-03-07T11:19:25;31.50;;;15.77;;
60243;SDS011;46106;51.468;5.814;2024-03-07T11:21:56;32.83;;;16.27;;
60243;SDS011;46106;51.468;5.814;2024-03-07T11:26:51;28.23;;;14.93;;
60243;SDS011;46106;51.468;5.814;2024-03-07T11:30:04;26.70;;;14.68;;
60243;SDS011;46106;51.468;5.814;2024-03-07T11:32:02;28.42;;;15.18;;
60243;SDS011;46106;51.468;5.814;2024-03-07T11:34:29;26.05;;;13.73;;
60243;SDS011;46106;51.468;5.814;2024-03-07T11:36:55;25.30;;;14.80;;
60243;SDS011;46106;51.468;5.814;2024-03-07T11:42:31;37.10;;;16.25;;
60243;SDS011;46106;51.468;5.814;2024-03-07T11:45:00;39.65;;;15.40;;
60243;SDS011;46106;51.468;5.814;2024-03-07T11:47:34;29.88;;;15.88;;
60243;SDS011;46106;51.468;5.814;2024-03-07T11:50:00;26.80;;;15.68;;
60243;SDS011;46106;51.468;5.814;2024-03-07T11:52:27;32.60;;;16.75;;
60243;SDS011;46106;51.468;5.814;2024-03-07T11:54:52;32.58;;;16.13;;
60243;SDS011;46106;51.468;5.814;2024-03-07T11:57:18;30.75;;;16.05;;
60243;SDS011;46106;51.468;5.814;2024-03-07T11:59:57;42.08;;;15.65;;
60243;SDS011;46106;51.468;5.814;2024-03-07T12:02:23;31.23;;;16.65;;
60243;SDS011;46106;51.468;5.814;2024-03-07T12:04:48;30.50;;;15.23;;
60243;SDS011;46106;51.468;5.814;2024-03-07T12:07:14;30.80;;;15.32;;
60243;SDS011;46106;51.468;5.814;2024-03-07T12:09:42;32.47;;;16.35;;
60243;SDS011;46106;51.468;5.814;2024-03-07T12:12:10;31.77;;;15.98;;
60243;SDS011;46106;51.468;5.814;2024-03-07T12:14:37;33.70;;;15.50;;
60243;SDS011;46106;51.468;5.814;2024-03-07T12:17:03;34.50;;;15.50;;
60243;SDS011;46106;51.468;5.814;2024-03-07T12:19:30;31.98;;;15.35;;
60243;SDS011;46106;51.468;5.814;2024-03-07T12:21:59;32.20;;;14.90;;
60243;SDS011;46106;51.468;5.814;2024-03-07T12:24:25;28.70;;;14.43;;
60243;SDS011;46106;51.468;5.814;2024-03-07T12:26:50;25.17;;;14.38;;
60243;SDS011;46106;51.468;5.814;2024-03-07T12:29:15;33.67;;;15.45;;
60243;SDS011;46106;51.468;5.814;2024-03-07T12:31:43;27.95;;;15.43;;
60243;SDS011;46106;51.468;5.814;2024-03-07T12:34:09;28.88;;;14.85;;
60243;SDS011;46106;51.468;5.814;2024-03-07T12:36:37;30.88;;;14.77;;
60243;SDS011;46106;51.468;5.814;2024-03-07T12:39:21;27.42;;;14.90;;
60243;SDS011;46106;51.468;5.814;2024-03-07T12:41:50;23.58;;;14.27;;
60243;SDS011;46106;51.468;5.814;2024-03-07T12:44:18;27.73;;;15.50;;
60243;SDS011;46106;51.468;5.814;2024-03-07T12:46:47;27.75;;;14.50;;
60243;SDS011;46106;51.468;5.814;2024-03-07T12:49:13;30.33;;;15.15;;
60243;SDS011;46106;51.468;5.814;2024-03-07T12:51:40;28.38;;;15.75;;
60243;SDS011;46106;51.468;5.814;2024-03-07T12:54:06;31.67;;;15.80;;
60243;SDS011;46106;51.468;5.814;2024-03-07T12:56:34;30.92;;;16.38;;
60243;SDS011;46106;51.468;5.814;2024-03-07T12:59:02;31.15;;;15.95;;
60243;SDS011;46106;51.468;5.814;2024-03-07T13:01:27;34.78;;;15.23;;
60243;SDS011;46106;51.468;5.814;2024-03-07T13:03:53;27.20;;;15.85;;
60243;SDS011;46106;51.468;5.814;2024-03-07T13:06:18;30.92;;;14.60;;
60243;SDS011;46106;51.468;5.814;2024-03-07T13:08:50;30.92;;;16.00;;
60243;SDS011;46106;51.468;5.814;2024-03-07T13:11:15;30.20;;;15.63;;
60243;SDS011;46106;51.468;5.814;2024-03-07T13:13:41;28.88;;;15.32;;
60243;SDS011;46106;51.468;5.814;2024-03-07T13:16:06;36.78;;;16.48;;
60243;SDS011;46106;51.468;5.814;2024-03-07T13:18:31;30.60;;;16.38;;
60243;SDS011;46106;51.468;5.814;2024-03-07T13:20:58;31.90;;;16.23;;
60243;SDS011;46106;51.468;5.814;2024-03-07T13:23:24;29.08;;;15.70;;
60243;SDS011;46106;51.468;5.814;2024-03-07T13:25:52;31.88;;;17.45;;
60243;SDS011;46106;51.468;5.814;2024-03-07T13:28:18;25.98;;;14.82;;
60243;SDS011;46106;51.468;5.814;2024-03-07T13:30:49;31.13;;;15.48;;
60243;SDS011;46106;51.468;5.814;2024-03-07T13:33:14;30.25;;;14.85;;
60243;SDS011;46106;51.468;5.814;2024-03-07T13:35:40;31.02;;;15.13;;
60243;SDS011;46106;51.468;5.814;2024-03-07T13:38:06;31.23;;;15.02;;
60243;SDS011;46106;51.468;5.814;2024-03-07T13:40:32;25.25;;;13.95;;
60243;SDS011;46106;51.468;5.814;2024-03-07T13:43:00;25.00;;;13.65;;
60243;SDS011;46106;51.468;5.814;2024-03-07T13:45:26;30.85;;;14.65;;
60243;SDS011;46106;51.468;5.814;2024-03-07T13:47:55;24.50;;;14.57;;
60243;SDS011;46106;51.468;5.814;2024-03-07T13:50:22;29.08;;;15.00;;
60243;SDS011;46106;51.468;5.814;2024-03-07T13:52:49;32.75;;;17.17;;
60243;SDS011;46106;51.468;5.814;2024-03-07T13:55:33;31.92;;;17.17;;
60243;SDS011;46106;51.468;5.814;2024-03-07T13:58:01;30.40;;;17.40;;
60243;SDS011;46106;51.468;5.814;2024-03-07T14:05:36;34.42;;;17.92;;
60243;SDS011;46106;51.468;5.814;2024-03-07T14:11:11;34.03;;;16.40;;
60243;SDS011;46106;51.468;5.814;2024-03-07T14:16:34;34.60;;;17.33;;
60243;SDS011;46106;51.468;5.814;2024-03-07T14:32:12;35.20;;;18.52;;
60243;SDS011;46106;51.468;5.814;2024-03-07T14:38:01;31.33;;;18.55;;
60243;SDS011;46106;51.468;5.814;2024-03-07T14:42:44;32.47;;;17.83;;
60243;SDS011;46106;51.468;5.814;2024-03-07T14:45:11;30.02;;;19.08;;
60243;SDS011;46106;51.468;5.814;2024-03-07T14:47:39;35.65;;;19.92;;
60243;SDS011;46106;51.468;5.814;2024-03-07T14:50:04;32.63;;;19.73;;
60243;SDS011;46106;51.468;5.814;2024-03-07T14:52:30;31.20;;;20.38;;
60243;SDS011;46106;51.468;5.814;2024-03-07T14:54:56;31.17;;;20.70;;
60243;SDS011;46106;51.468;5.814;2024-03-07T14:57:22;33.95;;;20.50;;
60243;SDS011;46106;51.468;5.814;2024-03-07T14:59:48;37.92;;;21.60;;
60243;SDS011;46106;51.468;5.814;2024-03-07T15:02:13;35.10;;;20.98;;
60243;SDS011;46106;51.468;5.814;2024-03-07T15:04:40;38.95;;;21.70;;
60243;SDS011;46106;51.468;5.814;2024-03-07T15:07:06;36.97;;;22.20;;
60243;SDS011;46106;51.468;5.814;2024-03-07T15:09:34;36.65;;;21.33;;
60243;SDS011;46106;51.468;5.814;2024-03-07T15:12:00;39.10;;;20.65;;
60243;SDS011;46106;51.468;5.814;2024-03-07T15:14:25;35.97;;;20.10;;
60243;SDS011;46106;51.468;5.814;2024-03-07T15:16:50;36.25;;;21.90;;
60243;SDS011;46106;51.468;5.814;2024-03-07T15:19:15;35.15;;;20.80;;
60243;SDS011;46106;51.468;5.814;2024-03-07T15:21:41;41.15;;;21.33;;
60243;SDS011;46106;51.468;5.814;2024-03-07T15:24:07;31.15;;;19.48;;
60243;SDS011;46106;51.468;5.814;2024-03-07T15:26:32;34.78;;;20.63;;
60243;SDS011;46106;51.468;5.814;2024-03-07T15:28:58;34.33;;;20.67;;
60243;SDS011;46106;51.468;5.814;2024-03-07T15:31:25;34.30;;;21.08;;
60243;SDS011;46106;51.468;5.814;2024-03-07T15:33:51;33.63;;;20.10;;
60243;SDS011;46106;51.468;5.814;2024-03-07T15:36:17;34.42;;;21.13;;